Stations météo

réclame
Mon MeteoGroup
Oberstdorf, Allemagne (10948): Température de l'air & dewpoint: 13.06.2019 11:00:00 - 19.06.2019 11:00:00 (CEST)Oberstdorf, Allemagne (10948): Température de l'air 5cm & Température de l'air -5cm: 13.06.2019 11:00:00 - 19.06.2019 11:00:00 (CEST)Oberstdorf, Allemagne (10948): Température de l'air -20cm & Température de l'air -100cm: 13.06.2019 11:00:00 - 19.06.2019 11:00:00 (CEST)Oberstdorf, Allemagne (10948): Vitesse du vent & gusts: 13.06.2019 11:00:00 - 19.06.2019 11:00:00 (CEST)Oberstdorf, Allemagne (10948): Direction du vent: 13.06.2019 11:00:00 - 19.06.2019 11:00:00 (CEST)Oberstdorf, Allemagne (10948): visibility: 13.06.2019 11:00:00 - 19.06.2019 11:00:00 (CEST)Oberstdorf, Allemagne (10948): Ensoleillement: 13.06.2019 11:00:00 - 19.06.2019 11:00:00 (CEST)Oberstdorf, Allemagne (10948): Quantités de précipitations: 13.06.2019 11:00:00 - 19.06.2019 11:00:00 (CEST)
Date & Time tt [°C] td [°C] tt 5cm [°C] tt -5cm [°C] tt -20cm [°C] tt -100cm [°C] ff [km/h] ff [knt] fx [km/h] fx [knt] dd vv [km] sd [min] rr [mm]
19.06.2019 11:00:00 25,9 7,6 29,0 18,1 18,0 14,7 3 2 9 5 ENE 51 60 0,0
19.06.2019 10:00:00 23,6 9,9 25,6 17,9 18,1 14,6 7 4 11 6 SE 65 60 0,0
19.06.2019 09:00:00 20,6 11,5 22,5 18,0 18,2 14,6 10 5 18 10 SE 35 60 0,0
19.06.2019 08:00:00 17,9 10,4 18,2 18,1 18,3 14,6 7 4 20 11 ESE 33 26 0,0
19.06.2019 07:00:00 14,7 11,7 14,0 18,4 18,5 14,6 10 6 19 10 SSE 68 0 0,0
19.06.2019 06:00:00 14,1 11,7 13,0 18,7 18,6 14,6 11 6 17 9 S 57 0 0,0
19.06.2019 05:00:00 13,2 12,7 13,0 19,0 18,7 14,6 3 2 8 5 ESE 23 0 0,0
19.06.2019 04:00:00 13,5 12,8 13,1 19,3 18,8 14,6 3 2 12 7 ENE 38 0 0,0
19.06.2019 03:00:00 12,9 12,6 12,7 19,7 18,9 14,6 7 4 12 6 SSW 9 0 0,0
19.06.2019 02:00:00 12,8 12,5 12,4 20,1 18,9 14,6 6 3 14 8 SSW 4,6 0 0,0
19.06.2019 01:00:00 13,8 13,1 13,1 20,5 18,9 14,6 10 5 13 7 S 27 0 0,0
19.06.2019 00:00:00 14,5 13,8 14,0 21,0 18,9 14,6 3 2 21 11 SSW 21 0 0,0
18.06.2019 23:00:00 15,3 14,1 14,7 21,4 18,8 14,6 17 9 23 12 SSE 31 0 1,0
18.06.2019 22:00:00 15,4 14,8 15,4 21,8 18,7 14,5 4 2 21 11 WSW 1,9 0 5,6
18.06.2019 21:00:00 15,7 14,3 15,7 21,9 18,5 14,5 16 9 36 19 SE 2,0 0 8,7
18.06.2019 20:00:00 21,4 15,0 21,6 21,9 18,3 14,5 2 1 16 9 SSW 32 0 0,0
18.06.2019 19:00:00 24,3 10,4 24,4 21,7 18,0 14,5 14 8 25 14 NNW 44 42 0,0
18.06.2019 18:00:00 26,2 10,9 28,9 21,4 17,8 14,5 16 9 30 16 N 22 50 0,0
18.06.2019 17:00:00 27,1 12,1 29,9 20,9 17,6 14,5 19 10 30 16 N 20 60 0,0
18.06.2019 16:00:00 26,3 11,9 30,4 20,3 17,4 14,5 19 10 34 18 N 16 60 0,0
18.06.2019 15:00:00 26,4 12,3 32,5 19,6 17,3 14,5 16 9 27 15 NNE 25 60 0,0
18.06.2019 14:00:00 25,8 10,9 31,7 18,9 17,2 14,5 15 8 25 13 N 19 60 0,0
18.06.2019 13:00:00 25,9 12,0 31,1 18,3 17,2 14,5 14 8 22 12 N 31 60 0,0
18.06.2019 12:00:00 24,9 11,9 32,4 17,7 17,2 14,5 8 5 19 10 NNW 48 60 0,0
18.06.2019 11:00:00 22,2 11,8 28,4 17,3 17,3 14,5 8 5 16 9 NNE 36 60 0,0
18.06.2019 10:00:00 21,5 8,9 26,3 17,1 17,4 14,5 4 2 9 5 NE 52 60 0,0
18.06.2019 09:00:00 18,8 9,3 22,0 17,1 17,5 14,5 2 1 5 3 E 55 60 0,0
18.06.2019 08:00:00 15,3 9,7 17,3 17,3 17,6 14,5 2 1 7 4 SE 54 59 0,0
18.06.2019 07:00:00 9,2 8,0 8,0 17,7 17,7 14,5 4 2 11 6 S 40 0 0,0
18.06.2019 06:00:00 8,4 7,5 6,1 18,0 17,8 14,5 5 3 10 5 S 38 0 0,0
18.06.2019 05:00:00 8,2 7,2 5,8 18,3 17,9 14,5 5 3 9 5 SSE 31 0 0,0
18.06.2019 04:00:00 8,3 7,2 5,8 18,7 18,0 14,5 4 2 8 5 SSE 26 0 0,0
18.06.2019 03:00:00 9,7 8,6 7,5 19,0 18,0 14,5 4 2 10 5 S 20 0 0,0
18.06.2019 02:00:00 11,8 11,2 9,0 19,4 18,0 14,5 5 3 10 6 SSE 24 0 0,0
18.06.2019 01:00:00 12,4 11,1 10,3 19,7 18,0 14,5 5 3 8 5 SSE 23 0 0,0
18.06.2019 00:00:00 13,3 11,8 10,5 20,0 17,9 14,5 3 1 9 5 SE 24 0 0,0
17.06.2019 23:00:00 14,0 12,0 11,9 20,2 17,8 14,5 4 2 9 5 SSE 21 0 0,0
17.06.2019 22:00:00 16,8 14,4 14,4 20,3 17,6 14,5 5 3 11 6 SSE 31 0 0,0
17.06.2019 21:00:00 19,5 13,6 18,7 20,3 17,5 14,5 8 4 13 7 NNE 26 29 0,0
17.06.2019 20:00:00 22,2 14,5 24,1 20,3 17,3 14,5 7 4 14 8 WNW 56 45 0,0
17.06.2019 19:00:00 21,0 15,7 21,4 20,3 17,0 14,5 4 2 16 9 S 46 0 0,0
17.06.2019 18:00:00 22,0 14,1 22,4 20,0 16,8 14,5 14 7 24 13 NW 50 0 0,0
17.06.2019 17:00:00 24,3 14,1 27,5 19,4 16,6 14,5 17 9 31 17 NNW 19 60 0,0
17.06.2019 16:00:00 24,5 13,8 29,0 18,8 16,4 14,5 18 10 29 16 NNW 10 60 0,0
17.06.2019 15:00:00 23,7 14,5 28,9 18,1 16,3 14,5 17 9 29 16 N 31 60 0,0
17.06.2019 14:00:00 22,9 13,5 29,5 17,4 16,2 14,5 14 8 24 13 NNW 21 60 0,0
17.06.2019 13:00:00 21,9 13,1 27,3 16,7 16,2 14,5 13 7 24 13 N 24 60 0,0
17.06.2019 12:00:00 19,6 11,7 25,8 16,1 16,3 14,5 9 5 16 9 N 30 60 0,0
17.06.2019 11:00:00 18,2 10,6 24,3 15,7 16,3 14,5 5 3 14 8 N 39 60 0,0
17.06.2019 10:00:00 17,4 10,3 22,0 15,5 16,5 14,5 4 2 9 5 NNW 45 60 0,0
17.06.2019 09:00:00 15,1 10,0 19,3 15,5 16,6 14,5 4 2 7 4 NW 58 60 0,0
17.06.2019 08:00:00 12,8 9,8 13,4 15,6 16,7 14,5 0 0 5 3 N 47 60 0,0
17.06.2019 07:00:00 7,7 7,4 7,0 15,9 16,9 14,5 3 2 7 4 ESE 19 0 0,0
17.06.2019 06:00:00 6,7 6,6 5,2 16,2 17,0 14,5 4 2 6 3 S 11 0 0,0
17.06.2019 05:00:00 8,0 8,0 6,2 16,5 17,1 14,5 3 1 7 4 SSE 15 0 0,0
17.06.2019 04:00:00 8,8 8,8 7,5 16,8 17,2 14,5 3 2 8 4 W 23 0 0,0
17.06.2019 03:00:00 9,0 8,8 7,1 17,1 17,3 14,4 4 2 5 3 SW 8 0 0,0
17.06.2019 02:00:00 10,4 9,9 10,1 17,5 17,4 14,4 0 0 4 2 N 45 0 0,0
17.06.2019 01:00:00 9,1 8,9 7,9 17,8 17,4 14,4 2 1 8 4 WSW 19 0 0,0
17.06.2019 00:00:00 9,9 9,2 8,2 18,1 17,4 14,4 6 3 8 4 S 20 0 0,0
16.06.2019 23:00:00 11,6 10,3 9,7 18,3 17,4 14,4 3 1 9 5 S 58 0 0,0
16.06.2019 22:00:00 13,1 11,2 11,6 18,4 17,4 14,4 7 4 8 4 SSE 69 0 0,0
16.06.2019 21:00:00 16,0 11,4 15,3 18,5 17,4 14,4 2 1 13 7 NW 70 0 0,0
16.06.2019 20:00:00 16,7 11,0 16,9 18,5 17,3 14,4 9 5 13 7 N 70 0 0,0
16.06.2019 19:00:00 17,4 11,5 18,2 18,5 17,3 14,4 4 2 14 8 N 70 0 0,0
16.06.2019 18:00:00 17,2 11,0 17,9 18,4 17,2 14,4 9 5 16 9 N 70 0 0,0
16.06.2019 17:00:00 17,4 10,0 18,1 18,2 17,2 14,4 11 6 18 10 N 70 0 0,0
16.06.2019 16:00:00 18,1 9,2 19,7 17,9 17,1 14,4 10 5 13 7 NNW 70 3 0,0
16.06.2019 15:00:00 18,1 9,0 20,9 17,7 17,1 14,4 4 2 10 5 NNE 70 0 0,0
16.06.2019 14:00:00 17,4 9,4 20,6 17,5 17,2 14,4 8 4 18 10 W 70 0 0,0
16.06.2019 13:00:00 17,1 9,5 20,7 17,4 17,2 14,4 10 5 18 10 WNW 70 0 0,0
16.06.2019 12:00:00 16,5 9,3 18,0 17,2 17,3 14,3 11 6 18 10 WNW 70 0 0,0
16.06.2019 11:00:00 16,4 9,6 19,6 17,1 17,3 14,3 7 4 14 8 W 70 4 0,0
16.06.2019 10:00:00 16,3 9,4 18,6 17,0 17,5 14,3 5 3 13 7 N 70 27 0,0
16.06.2019 09:00:00 15,9 9,8 16,2 17,1 17,6 14,3 4 2 16 9 SE 70 7 0,0
16.06.2019 08:00:00 12,5 10,8 13,0 17,3 17,7 14,3 5 3 6 4 S 70 2 0,0
16.06.2019 07:00:00 10,9 10,2 10,2 17,6 17,8 14,3 4 2 11 6 SSE 70 0 0,0
16.06.2019 06:00:00 11,5 10,4 10,9 17,8 17,9 14,3 7 4 10 5 SSE 70 0 0,0
16.06.2019 05:00:00 11,8 10,8 11,5 18,1 18,0 14,3 11 6 16 9 SSE 70 0 0,0
16.06.2019 04:00:00 11,8 11,1 11,6 18,4 18,1 14,2 4 2 9 5 NNE 70 0 0,0
16.06.2019 03:00:00 12,1 11,3 11,9 18,7 18,2 14,2 6 4 13 7 S 70 0 0,0
16.06.2019 02:00:00 12,3 11,4 12,0 19,0 18,3 14,2 4 2 10 6 S 46 0 0,3
16.06.2019 01:00:00 12,6 10,7 12,3 19,3 18,3 14,2 9 5 24 13 NNW 70 0 0,1
16.06.2019 00:00:00 14,0 9,5 12,5 19,6 18,3 14,2 14 8 33 18 NW 11 0 0,3
15.06.2019 23:00:00 14,9 9,8 12,5 19,8 18,3 14,2 12 6 58 32 SW 4,7 0 0,1
15.06.2019 22:00:00 16,2 13,0 15,7 20,0 18,3 14,2 6 3 11 6 S 44 0 0,0
15.06.2019 21:00:00 17,4 13,2 16,9 20,1 18,3 14,2 6 3 8 4 S 65 0 0,0
15.06.2019 20:00:00 18,6 14,4 18,8 20,2 18,2 14,2 3 1 6 4 SSW 24 0 0,0
15.06.2019 19:00:00 18,9 13,4 19,5 20,2 18,1 14,1 2 1 5 3 SSE 57 0 0,0
15.06.2019 18:00:00 19,5 13,0 20,7 20,3 18,0 14,1 3 1 6 3 ENE 70 0 0,0
15.06.2019 17:00:00 19,2 12,9 20,0 20,3 17,9 14,1 2 1 24 13 W 70 0 0,0
15.06.2019 16:00:00 19,4 12,0 19,9 20,1 17,8 14,1 14 8 22 12 NNW 70 0 0,0
15.06.2019 15:00:00 20,4 12,6 21,4 19,8 17,7 14,1 15 8 22 12 NNW 55 0 0,0
15.06.2019 14:00:00 21,6 12,5 25,2 19,4 17,6 14,1 13 7 26 14 NNW 56 2 0,0
15.06.2019 13:00:00 21,6 12,6 24,8 18,9 17,6 14,1 14 8 24 13 NW 41 27 0,0
15.06.2019 12:00:00 21,4 12,9 25,5 18,4 17,6 14,0 14 7 28 15 WNW 36 43 0,0
15.06.2019 11:00:00 21,5 12,5 24,3 18,1 17,7 14,0 11 6 20 11 NNE 45 51 0,0
15.06.2019 10:00:00 21,7 12,2 25,8 17,8 17,8 14,0 11 6 18 10 WNW 27 60 0,0
15.06.2019 09:00:00 21,2 11,9 23,1 17,8 17,9 14,0 5 3 10 5 E 35 60 0,0
15.06.2019 08:00:00 19,3 11,2 20,6 18,0 18,0 14,0 6 3 26 14 E 44 58 0,0
15.06.2019 07:00:00 16,5 10,9 15,6 18,4 18,2 14,0 16 8 28 15 NNW 31 0 0,0
15.06.2019 06:00:00 12,4 10,2 11,7 18,7 18,3 14,0 9 5 15 8 S 34 0 0,0
15.06.2019 05:00:00 12,2 10,3 10,5 19,1 18,4 13,9 6 4 11 6 SSE 32 0 0,0
15.06.2019 04:00:00 13,1 11,5 11,4 19,5 18,4 13,9 10 5 15 8 S 32 0 0,0
15.06.2019 03:00:00 13,3 11,2 11,3 19,8 18,5 13,9 5 3 16 9 SE 34 0 0,0
15.06.2019 02:00:00 13,8 11,8 12,7 20,2 18,5 13,9 6 3 16 9 NW 30 0 0,0
15.06.2019 01:00:00 15,7 12,7 14,0 20,6 18,5 13,9 9 5 14 8 SE 38 0 0,0
15.06.2019 00:00:00 15,1 12,8 14,1 20,9 18,4 13,9 7 4 15 8 SW 26 0 0,0
14.06.2019 23:00:00 18,6 13,6 17,7 21,2 18,3 13,9 14 8 22 12 SSE 40 0 0,0
14.06.2019 22:00:00 18,3 13,8 16,7 21,5 18,1 13,9 11 6 18 10 SSE 38 0 0,0
14.06.2019 21:00:00 18,8 14,1 17,9 21,6 17,9 13,9 4 2 19 10 SSE 46 0 0,0
14.06.2019 20:00:00 20,9 15,5 20,6 21,6 17,6 13,9 11 6 15 8 S 46 0 0,0
14.06.2019 19:00:00 23,6 15,5 23,6 21,3 17,4 13,9 4 2 16 9 E 44 1 0,0
14.06.2019 18:00:00 25,0 13,1 26,5 20,8 17,1 13,9 11 6 22 12 NNW 48 52 0,0
14.06.2019 17:00:00 25,7 13,1 29,7 20,3 16,8 13,9 10 6 29 16 NNW 32 56 0,0
14.06.2019 16:00:00 25,0 12,3 27,0 19,7 16,6 13,8 16 9 29 16 N 50 46 0,0
14.06.2019 15:00:00 25,7 10,3 30,9 18,9 16,4 13,8 19 11 30 16 W 32 49 0,0
14.06.2019 14:00:00 26,5 11,8 29,7 18,1 16,3 13,8 19 10 29 16 NNW 36 53 0,0
14.06.2019 13:00:00 25,6 10,3 30,2 17,2 16,3 13,8 14 8 21 11 N 26 60 0,0
14.06.2019 12:00:00 24,3 8,3 29,7 16,5 16,4 13,8 8 4 14 8 N 44 60 0,0
14.06.2019 11:00:00 24,0 6,7 27,7 16,1 16,5 13,8 3 2 7 4 NE 58 60 0,0
14.06.2019 10:00:00 20,3 7,8 25,1 15,9 16,6 13,8 3 2 10 5 SW 62 60 0,0
14.06.2019 09:00:00 16,8 7,6 20,0 15,9 16,8 13,8 3 2 9 5 WSW 50 55 0,0
14.06.2019 08:00:00 13,4 8,1 14,3 16,2 16,9 13,8 4 2 9 5 SE 59 59 0,0
14.06.2019 07:00:00 7,7 7,1 7,5 16,6 17,1 13,8 4 2 9 5 S 30 1 0,0
14.06.2019 06:00:00 7,6 6,4 5,9 17,0 17,2 13,8 5 3 10 5 SSE 54 0 0,0
14.06.2019 05:00:00 8,0 7,1 5,2 17,4 17,3 13,8 6 3 10 6 SE 63 0 0,0
14.06.2019 04:00:00 7,4 6,5 5,0 17,9 17,4 13,8 6 3 10 6 SE 24 0 0,0
14.06.2019 03:00:00 8,1 7,8 6,2 18,4 17,5 13,8 5 3 10 6 S 21 0 0,0
14.06.2019 02:00:00 8,4 7,8 6,6 18,8 17,5 13,7 4 2 7 4 S 25 0 0,0
14.06.2019 01:00:00 11,0 10,0 7,9 19,2 17,5 13,7 4 2 10 6 SSE 44 0 0,0
14.06.2019 00:00:00 11,4 10,0 9,0 19,6 17,4 13,7 4 2 8 4 S 47 0 0,0
13.06.2019 23:00:00 12,1 10,0 10,5 20,0 17,2 13,7 7 4 12 7 S 49 0 0,0
13.06.2019 22:00:00 13,2 10,3 11,8 20,2 17,1 13,7 8 4 10 6 SSE 51 0 0,0
13.06.2019 21:00:00 17,2 10,5 15,3 20,2 16,8 13,7 4 2 22 12 WSW 70 11 0,0
13.06.2019 20:00:00 20,4 10,7 20,7 20,0 16,6 13,7 10 5 21 11 NNW 70 44 0,0
13.06.2019 19:00:00 20,5 11,2 22,4 19,6 16,4 13,7 10 5 22 12 WNW 64 52 0,0
13.06.2019 18:00:00 21,7 10,0 24,4 19,0 16,2 13,7 16 9 29 16 NNW 34 56 0,0
13.06.2019 17:00:00 21,7 10,4 24,8 18,4 16,0 13,7 16 9 28 15 N 22 60 0,0
13.06.2019 16:00:00 21,8 10,6 25,3 17,6 15,9 13,7 16 9 32 18 NNW 33 60 0,0
13.06.2019 15:00:00 21,4 9,7 27,3 17,0 15,8 13,7 10 6 24 13 NW 32 60 0,0
13.06.2019 14:00:00 20,2 9,0 27,0 16,6 15,8 13,7 6 3 15 8 NNW 46 41 0,0
13.06.2019 13:00:00 18,2 9,4 20,1 16,3 15,7 13,7 6 4 22 12 ENE 69 8 0,0
13.06.2019 12:00:00 18,7 10,9 22,4 16,0 15,8 13,7 11 6 22 12 NE 39 51 0,0
13.06.2019 11:00:00 16,8 10,9 19,0 15,8 15,8 13,7 10 6 18 10 NNE 39 24 0,0

tt = Température de l'air
td = dewpoint
tt 5cm = Température de l'air 5cm
tt -5cm = Température de l'air -5cm
tt -20cm = Température de l'air -20cm
tt -100cm = Température de l'air -100cm
ff = Vitesse du vent
fx = gusts
dd = Direction du vent
vv = visibility
sd = Ensoleillement
rr = Quantités de précipitations

stations d'obs. à proximité